Terminal Aerodrome Forecast
Issued by NWS Spokane, WA

Home | Current Version | Previous Version | Text Only | Print | Product List | Glossary On
Versions: 1 2 3 4 5 6 7 8 9 10 11 12 13
000
FTUS46 KOTX 251734
TAFGEG
TAF
KGEG 251734Z 2518/2618 07010KT P6SM FEW080 SCT200
     FM252300 18012G18KT P6SM VCSH SCT040 BKN080 BKN120
     FM260300 19016G26KT P6SM -SHRA SCT030 BKN050 OVC080
     FM260800 21025G38KT P6SM BKN050
     FM261500 21023KT P6SM SCT050 BKN100=

USA.gov is the U.S. government's official web portal to all federal, state and local government web resources and services.